Windsor Hills, California
Current Conditions -  °F | °C
As of 6:53 PM on Monday 26 Jan 2015 (Local Time) from KLAX Reporting Station
Overcast Overcast  
Wind Chill: 59°   Ceiling: 4600
Heat Index: 59°   Visibility: 10mi
Dew Point: 52°   Wind: 8mph
Humidity: 78%   Direction: 160°SSE
Pressure: 30.07"   Gusts: NA
Location:  33.9931°N, 118.373°W
Report Text: KLAX 270253Z 16007KT 130V200 10SM BKN046 OVC080 15/11 A3007 RMK AO2 RAE13 SLP182 P0000 60006 T01500111 51013
Loading
Personal Weather Stations






























Interactive Weather Map New forecast layout! Learn more

10-Day Weather Forecast

Advertisements
Track Severe Weather on mobile